KLPC/LPC METAR and TAF weather

Enter ICAO airport designator
Station Type Date Time Source
KLPC METAR 2019/02/16 02:56 UTC NOAA

KLPC 160256Z AUTO 32006KT 4SM -RA BR FEW014 BKN038 OVC050 10/09 A3010 RMK AO2 RAB03 SLP196 P0007 60007 T01000089 53011


Station Type Date Time Source
KLPC Decoded METAR 2019/02/16 02:56 UTC NOAA

Lompoc, Lompoc Airport, CA, United States (KLPC) 34-40N 120-28W
Feb 15, 2019 - 09:56 PM EST / 2019.02.16 0256 UTC
Wind: from the NW (320 degrees) at 7 MPH (6 KT):0
Visibility: 4 mile(s):0
Sky conditions: overcast
Weather: light rain; mist
Precipitation last hour: 0.07 inches
Temperature: 50.0 F (10.0 C)
Dew Point: 48.0 F (8.9 C)
Relative Humidity: 92%
Pressure (altimeter): 30.1 in. Hg (1019 hPa)
Pressure tendency: 0.03 inches (1.1 hPa) higher than three hours ago
ob: KLPC 160256Z AUTO 32006KT 4SM -RA BR FEW014 BKN038 OVC050 10/09 A3010 RMK AO2 RAB03 SLP196 P0007 60007 T01000089 53011
cycle: 3

Station Type Date Time Source
KLPC TAF UTC NOAA

Error!


Example: see airport list